createdAt,value
2023-01-20T00:01:23.869Z,22.80
2023-01-20T00:03:51.906Z,17.90
2023-01-20T00:06:18.687Z,23.10
2023-01-20T00:08:45.457Z,31.30
2023-01-20T00:11:12.683Z,20.30
2023-01-20T00:13:39.867Z,25.80
2023-01-20T00:16:08.171Z,23.30
2023-01-20T00:18:35.591Z,25.30
2023-01-20T00:21:06.259Z,24.60
2023-01-20T00:23:33.201Z,29.90
2023-01-20T00:26:03.528Z,23.10
2023-01-20T00:28:30.392Z,23.50
2023-01-20T00:30:57.255Z,25.30
2023-01-20T00:33:24.125Z,27.10
2023-01-20T00:35:50.981Z,28.00
2023-01-20T00:38:18.423Z,25.70
2023-01-20T00:40:45.197Z,26.40
2023-01-20T00:43:13.378Z,22.00
2023-01-20T00:45:41.177Z,22.70
2023-01-20T00:48:07.892Z,23.30
2023-01-20T00:50:34.583Z,23.10
2023-01-20T00:53:01.409Z,20.20
2023-01-20T00:55:28.202Z,21.30
2023-01-20T00:57:54.906Z,22.60
2023-01-20T01:00:21.737Z,22.10
2023-01-20T01:02:48.474Z,27.30
2023-01-20T01:05:15.568Z,21.70
2023-01-20T01:07:42.485Z,26.60
2023-01-20T01:10:10.003Z,22.40
2023-01-20T01:12:36.907Z,22.40
2023-01-20T01:15:04.146Z,23.60
2023-01-20T01:17:30.989Z,23.40
2023-01-20T01:19:57.774Z,22.60
2023-01-20T01:22:24.597Z,22.00
2023-01-20T01:24:51.308Z,24.00
2023-01-20T01:27:18.095Z,24.10
2023-01-20T01:29:44.993Z,24.10
2023-01-20T01:32:11.814Z,28.10
2023-01-20T01:34:38.600Z,26.40
2023-01-20T01:37:05.350Z,24.70
2023-01-20T01:39:32.086Z,23.70
2023-01-20T01:41:58.907Z,24.60
2023-01-20T01:44:26.388Z,21.00
2023-01-20T01:46:53.133Z,26.00
2023-01-20T01:49:19.870Z,28.20
2023-01-20T01:51:55.556Z,24.10
2023-01-20T01:54:25.302Z,25.30
2023-01-20T01:56:52.301Z,23.80
2023-01-20T01:59:19.970Z,28.90
2023-01-20T02:01:52.261Z,26.80
2023-01-20T02:04:23.766Z,27.50
2023-01-20T02:07:02.804Z,24.90
2023-01-20T02:09:30.326Z,24.30
2023-01-20T02:12:01.383Z,25.90
2023-01-20T02:14:33.833Z,29.30
2023-01-20T02:17:07.919Z,27.70
2023-01-20T02:19:34.638Z,30.10
2023-01-20T02:22:20.159Z,29.90
2023-01-20T02:25:09.923Z,27.10
2023-01-20T02:27:39.620Z,22.90
2023-01-20T02:30:06.329Z,29.20
2023-01-20T02:32:36.100Z,28.20
2023-01-20T02:35:10.918Z,28.10
2023-01-20T02:37:49.751Z,25.50
2023-01-20T02:40:21.256Z,27.20
2023-01-20T02:42:52.800Z,30.40
2023-01-20T02:45:42.381Z,29.10
2023-01-20T02:48:14.906Z,29.50
2023-01-20T02:50:47.814Z,26.30
2023-01-20T02:53:15.665Z,29.60
2023-01-20T02:55:49.278Z,29.70
2023-01-20T02:58:38.647Z,29.50
2023-01-20T03:01:18.257Z,25.70
2023-01-20T03:03:46.950Z,24.20
2023-01-20T03:06:16.778Z,30.00
2023-01-20T03:08:44.607Z,24.40
2023-01-20T03:11:11.990Z,31.30
2023-01-20T03:13:58.962Z,26.00
2023-01-20T03:16:27.078Z,27.80
2023-01-20T03:18:54.670Z,29.90
2023-01-20T03:21:21.584Z,30.80
2023-01-20T03:23:50.356Z,30.00
2023-01-20T03:26:18.574Z,31.30
2023-01-20T03:28:46.099Z,32.40
2023-01-20T03:31:17.957Z,31.50
2023-01-20T03:33:47.172Z,29.50
2023-01-20T03:36:15.012Z,28.70
2023-01-20T03:38:42.716Z,32.50
2023-01-20T03:41:28.309Z,28.30
2023-01-20T03:44:02.788Z,31.10
2023-01-20T03:46:35.733Z,40.20
2023-01-20T03:49:10.091Z,36.50
2023-01-20T03:51:49.471Z,39.30
2023-01-20T03:54:19.319Z,31.60
2023-01-20T03:56:49.805Z,32.00
2023-01-20T03:59:18.073Z,30.90
2023-01-20T04:01:45.066Z,24.90
2023-01-20T04:04:15.013Z,30.30
2023-01-20T04:06:43.971Z,30.80
2023-01-20T04:09:23.583Z,32.80
2023-01-20T04:11:50.832Z,32.80
2023-01-20T04:14:17.987Z,39.40
2023-01-20T04:16:51.326Z,50.70
2023-01-20T04:19:18.026Z,90.10
2023-01-20T04:21:47.996Z,55.10
2023-01-20T04:24:23.988Z,30.60
2023-01-20T04:26:50.868Z,31.10
2023-01-20T04:29:18.009Z,31.20
2023-01-20T04:31:44.845Z,30.50
2023-01-20T04:34:13.677Z,26.80
2023-01-20T04:36:40.402Z,46.40
2023-01-20T04:39:07.154Z,61.60
2023-01-20T04:41:33.927Z,41.00
2023-01-20T04:44:00.654Z,59.80
2023-01-20T04:46:27.408Z,38.40
2023-01-20T04:48:54.173Z,43.00
2023-01-20T04:51:21.058Z,45.20
2023-01-20T04:53:47.871Z,29.90
2023-01-20T04:56:15.724Z,29.70
2023-01-20T04:58:42.852Z,31.50
2023-01-20T05:01:09.685Z,31.80
2023-01-20T05:03:36.686Z,32.90
2023-01-20T05:06:03.495Z,31.00
2023-01-20T05:08:30.358Z,39.20
2023-01-20T05:10:57.138Z,65.20
2023-01-20T05:13:23.927Z,63.30
2023-01-20T05:15:50.767Z,49.60
2023-01-20T05:18:17.551Z,48.50
2023-01-20T05:20:45.475Z,39.00
2023-01-20T05:23:12.270Z,44.30
2023-01-20T05:25:39.587Z,39.80
2023-01-20T05:28:06.646Z,40.10
2023-01-20T05:30:33.467Z,221.20
2023-01-20T05:33:00.205Z,90.50
2023-01-20T05:35:27.015Z,59.70
2023-01-20T05:37:54.829Z,41.70
2023-01-20T05:40:21.844Z,34.10
2023-01-20T05:42:48.630Z,27.80
2023-01-20T05:45:15.746Z,20.30
2023-01-20T05:47:42.744Z,17.30
2023-01-20T05:50:10.224Z,20.00
2023-01-20T05:52:36.988Z,21.00
2023-01-20T05:55:03.843Z,17.70
2023-01-20T05:57:30.619Z,17.90
2023-01-20T05:59:57.418Z,19.10
2023-01-20T06:02:24.222Z,17.30
2023-01-20T06:04:50.989Z,17.00
2023-01-20T06:07:17.725Z,15.60
2023-01-20T06:09:44.443Z,16.70
2023-01-20T06:12:11.306Z,18.10
2023-01-20T06:14:38.099Z,14.50
2023-01-20T06:17:04.891Z,17.30
2023-01-20T06:19:31.654Z,18.60
2023-01-20T06:21:58.459Z,17.10
2023-01-20T06:24:25.182Z,15.80
2023-01-20T06:26:51.937Z,14.40
2023-01-20T06:29:18.686Z,12.70
2023-01-20T06:31:45.905Z,19.60
2023-01-20T06:34:13.185Z,15.40
2023-01-20T06:36:40.059Z,13.90
2023-01-20T06:39:06.908Z,16.30
2023-01-20T06:41:33.790Z,15.00
2023-01-20T06:44:00.667Z,16.50
2023-01-20T06:46:27.533Z,15.00
2023-01-20T06:49:00.587Z,36.10
2023-01-20T06:51:28.870Z,112.10
2023-01-20T06:53:55.850Z,23.60
2023-01-20T06:56:22.929Z,18.00
2023-01-20T06:58:49.963Z,16.70
2023-01-20T07:01:20.811Z,15.20
2023-01-20T07:03:47.667Z,16.90
2023-01-20T07:06:16.315Z,14.90
2023-01-20T07:08:44.369Z,12.20
2023-01-20T07:11:11.197Z,20.80
2023-01-20T07:13:38.026Z,16.20
2023-01-20T07:16:04.999Z,18.40
2023-01-20T07:18:31.850Z,18.80
2023-01-20T07:20:58.601Z,18.40
2023-01-20T07:23:25.403Z,18.10
2023-01-20T07:26:02.587Z,13.80
2023-01-20T07:28:30.533Z,15.40
2023-01-20T07:31:02.895Z,14.20
2023-01-20T07:33:29.707Z,14.50
2023-01-20T07:35:56.453Z,12.70
2023-01-20T07:38:23.408Z,11.10
2023-01-20T07:40:50.124Z,13.20
2023-01-20T07:43:16.930Z,14.00
2023-01-20T07:45:43.753Z,15.00
2023-01-20T07:48:10.580Z,18.70
2023-01-20T07:50:37.814Z,15.80
2023-01-20T07:53:05.215Z,14.00
2023-01-20T07:55:31.966Z,16.40
2023-01-20T07:57:59.067Z,14.70
2023-01-20T08:00:25.940Z,10.90
2023-01-20T08:02:52.659Z,10.90
2023-01-20T08:05:19.437Z,13.80
2023-01-20T08:07:50.228Z,9.50
2023-01-20T08:10:17.260Z,10.20
2023-01-20T08:12:44.088Z,9.90
2023-01-20T08:15:11.263Z,12.20
2023-01-20T08:17:37.966Z,13.40
2023-01-20T08:20:06.378Z,16.30
2023-01-20T08:22:34.574Z,16.20
2023-01-20T08:25:01.473Z,23.30
2023-01-20T08:27:28.290Z,21.10
2023-01-20T08:29:55.828Z,21.20
2023-01-20T08:32:22.705Z,15.30
2023-01-20T08:34:49.509Z,13.50
2023-01-20T08:37:16.357Z,12.10
2023-01-20T08:39:43.559Z,11.80
2023-01-20T08:42:10.336Z,13.40
2023-01-20T08:44:37.102Z,16.60
2023-01-20T08:47:03.813Z,15.50
2023-01-20T08:49:30.598Z,17.90
2023-01-20T08:51:57.812Z,23.00
2023-01-20T08:54:24.668Z,22.90
2023-01-20T08:56:54.651Z,18.40
2023-01-20T08:59:22.439Z,29.20
2023-01-20T09:01:49.221Z,24.90
2023-01-20T09:04:15.982Z,25.00
2023-01-20T09:06:42.828Z,20.60
2023-01-20T09:09:09.600Z,17.70
2023-01-20T09:11:36.419Z,14.40
2023-01-20T09:14:03.339Z,15.50
2023-01-20T09:16:30.075Z,13.60
2023-01-20T09:18:56.853Z,14.60
2023-01-20T09:21:23.748Z,16.10
2023-01-20T09:23:50.572Z,13.80
2023-01-20T09:26:29.786Z,13.90
2023-01-20T09:29:09.541Z,12.70
2023-01-20T09:31:49.629Z,15.10
2023-01-20T09:34:21.700Z,14.80
2023-01-20T09:36:56.040Z,12.70
2023-01-20T09:39:41.811Z,29.10
2023-01-20T09:42:47.555Z,20.00
2023-01-20T09:45:26.521Z,12.40
2023-01-20T09:47:58.873Z,10.20
2023-01-20T09:50:51.045Z,12.70
2023-01-20T09:53:25.188Z,12.50
2023-01-20T09:55:58.749Z,12.30
2023-01-20T09:58:37.993Z,14.40
2023-01-20T10:01:07.374Z,16.70
2023-01-20T10:03:37.412Z,18.60
2023-01-20T10:06:10.305Z,13.40
2023-01-20T10:09:04.913Z,12.70
2023-01-20T10:11:39.309Z,13.90
2023-01-20T10:14:09.900Z,15.50
2023-01-20T10:16:49.052Z,11.10
2023-01-20T10:19:27.462Z,11.20
2023-01-20T10:22:00.136Z,11.80
2023-01-20T10:24:32.575Z,11.00
2023-01-20T10:27:03.679Z,8.60
2023-01-20T10:30:00.319Z,8.10
2023-01-20T10:32:33.684Z,8.00
2023-01-20T10:35:03.730Z,10.90
2023-01-20T10:37:32.323Z,9.00
2023-01-20T10:40:19.440Z,9.50
2023-01-20T10:42:52.747Z,8.20
2023-01-20T10:45:28.725Z,7.90
2023-01-20T10:47:55.532Z,6.90
2023-01-20T10:50:41.214Z,8.00
2023-01-20T10:53:17.062Z,9.70
2023-01-20T10:55:51.601Z,8.50
2023-01-20T10:58:22.498Z,8.70
2023-01-20T11:00:50.217Z,8.40
2023-01-20T11:03:19.211Z,7.90
2023-01-20T11:05:47.942Z,7.80
2023-01-20T11:08:19.608Z,8.70
2023-01-20T11:10:47.745Z,6.00
2023-01-20T11:13:14.514Z,8.10
2023-01-20T11:15:43.754Z,7.10
2023-01-20T11:18:16.637Z,8.00
2023-01-20T11:20:52.526Z,4.70
2023-01-20T11:23:38.192Z,6.70
2023-01-20T11:26:10.305Z,4.80
2023-01-20T11:28:48.591Z,8.80
2023-01-20T11:31:16.069Z,7.50
2023-01-20T11:33:57.138Z,6.90
2023-01-20T11:36:27.761Z,9.40
2023-01-20T11:38:55.757Z,10.90
2023-01-20T11:41:30.008Z,9.60
2023-01-20T11:44:00.923Z,14.40
2023-01-20T11:46:32.499Z,13.00
2023-01-20T11:49:14.435Z,12.50
2023-01-20T11:51:49.579Z,12.90
2023-01-20T11:54:21.352Z,10.90
2023-01-20T11:56:50.159Z,8.80
2023-01-20T11:59:28.109Z,14.80
2023-01-20T12:02:07.374Z,11.90
2023-01-20T12:04:34.189Z,12.70
2023-01-20T12:07:03.913Z,15.80
2023-01-20T12:09:35.317Z,16.20
2023-01-20T12:12:04.910Z,15.70
2023-01-20T12:14:40.633Z,11.70
2023-01-20T12:17:30.694Z,14.10
2023-01-20T12:20:00.655Z,23.10
2023-01-20T12:22:46.296Z,21.50
2023-01-20T12:25:21.142Z,13.20
2023-01-20T12:27:49.966Z,10.30
2023-01-20T12:30:37.141Z,10.40
2023-01-20T12:33:04.352Z,8.30
2023-01-20T12:35:34.219Z,13.70
2023-01-20T12:38:07.119Z,13.50
2023-01-20T12:40:51.293Z,10.60
2023-01-20T12:43:30.412Z,14.10
2023-01-20T12:46:06.085Z,13.80
2023-01-20T12:48:39.337Z,13.50
2023-01-20T12:51:25.177Z,11.80
2023-01-20T12:54:07.768Z,12.50
2023-01-20T12:56:40.592Z,12.70
2023-01-20T12:59:26.978Z,12.30
2023-01-20T13:02:09.195Z,10.70
2023-01-20T13:04:59.212Z,15.50
2023-01-20T13:07:40.644Z,15.30
2023-01-20T13:10:13.985Z,13.60
2023-01-20T13:12:54.020Z,13.50
2023-01-20T13:15:20.777Z,39.80
2023-01-20T13:17:56.592Z,57.30
2023-01-20T13:20:25.565Z,22.50
2023-01-20T13:22:53.358Z,26.70
2023-01-20T13:25:20.709Z,23.20
2023-01-20T13:27:50.936Z,40.00
2023-01-20T13:30:36.977Z,33.50
2023-01-20T13:33:08.478Z,32.70
2023-01-20T13:35:42.625Z,23.10
2023-01-20T13:38:18.126Z,19.90
2023-01-20T13:40:45.773Z,19.00
2023-01-20T13:43:27.636Z,21.10
2023-01-20T13:46:15.502Z,18.00
2023-01-20T13:49:01.395Z,20.80
2023-01-20T13:51:29.677Z,19.30
2023-01-20T13:54:16.435Z,20.50
2023-01-20T13:56:43.227Z,19.50
2023-01-20T13:59:09.976Z,18.60
2023-01-20T14:01:39.626Z,11.90
2023-01-20T14:04:07.987Z,16.90
2023-01-20T14:06:36.041Z,16.80
2023-01-20T14:09:03.212Z,12.40
2023-01-20T14:11:30.468Z,13.40
2023-01-20T14:13:58.534Z,14.20
2023-01-20T14:16:25.368Z,24.80
2023-01-20T14:18:53.396Z,10.30
2023-01-20T14:21:21.953Z,13.60
2023-01-20T14:23:49.537Z,21.50
2023-01-20T14:26:24.768Z,49.90
2023-01-20T14:28:52.945Z,31.80
2023-01-20T14:31:21.836Z,21.20
2023-01-20T14:33:52.219Z,15.00
2023-01-20T14:36:20.332Z,14.10
2023-01-20T14:38:59.280Z,14.80
2023-01-20T14:41:27.360Z,13.20
2023-01-20T14:43:54.402Z,13.70
2023-01-20T14:46:21.790Z,11.60
2023-01-20T14:48:48.727Z,22.60
2023-01-20T14:51:15.611Z,151.00
2023-01-20T14:53:42.389Z,61.70
2023-01-20T14:56:17.018Z,20.00
2023-01-20T14:58:47.948Z,15.30
2023-01-20T15:01:25.043Z,16.80
2023-01-20T15:03:59.065Z,12.20
2023-01-20T15:06:26.267Z,13.00
2023-01-20T15:09:06.015Z,11.10
2023-01-20T15:11:34.061Z,13.00
2023-01-20T15:14:01.269Z,11.00
2023-01-20T15:16:37.377Z,11.30
2023-01-20T15:19:13.456Z,13.80
2023-01-20T15:21:41.302Z,13.70
2023-01-20T15:24:22.273Z,13.10
2023-01-20T15:26:50.521Z,13.40
2023-01-20T15:29:23.399Z,10.00
2023-01-20T15:31:51.532Z,12.30
2023-01-20T15:34:19.008Z,12.00
2023-01-20T15:36:46.571Z,11.50
2023-01-20T15:39:14.180Z,11.30
2023-01-20T15:41:40.938Z,11.10
2023-01-20T15:44:08.231Z,13.30
2023-01-20T15:46:35.416Z,11.00
2023-01-20T15:49:02.539Z,11.40
2023-01-20T15:51:29.287Z,9.50
2023-01-20T15:53:56.109Z,9.70
2023-01-20T15:56:24.326Z,7.80
2023-01-20T15:58:51.551Z,11.90
2023-01-20T16:01:20.114Z,11.00
2023-01-20T16:03:47.039Z,9.30
2023-01-20T16:06:15.214Z,9.20
2023-01-20T16:08:42.930Z,8.80
2023-01-20T16:11:11.803Z,10.30
2023-01-20T16:13:40.250Z,10.70
2023-01-20T16:16:12.657Z,10.30
2023-01-20T16:18:39.460Z,7.80
2023-01-20T16:21:06.351Z,8.90
2023-01-20T16:23:33.129Z,9.20
2023-01-20T16:26:00.260Z,9.10
2023-01-20T16:28:27.067Z,8.70
2023-01-20T16:30:55.555Z,8.90
2023-01-20T16:33:26.242Z,11.00
2023-01-20T16:35:54.506Z,9.80
2023-01-20T16:38:22.159Z,9.50
2023-01-20T16:40:53.164Z,10.00
2023-01-20T16:43:20.390Z,8.20
2023-01-20T16:45:50.989Z,9.50
2023-01-20T16:48:17.750Z,7.90
2023-01-20T16:50:44.702Z,8.60
2023-01-20T16:53:12.914Z,7.40
2023-01-20T16:55:42.920Z,7.80
2023-01-20T16:58:09.642Z,8.90
2023-01-20T17:00:37.065Z,9.40
2023-01-20T17:03:04.543Z,8.40
2023-01-20T17:05:31.918Z,11.40
2023-01-20T17:07:59.831Z,8.70
2023-01-20T17:10:29.819Z,9.10
2023-01-20T17:12:57.321Z,8.60
2023-01-20T17:15:24.419Z,10.80
2023-01-20T17:17:51.910Z,9.90
2023-01-20T17:20:19.451Z,8.50
2023-01-20T17:22:47.952Z,12.00
2023-01-20T17:25:17.954Z,10.00
2023-01-20T17:27:45.481Z,10.40
2023-01-20T17:30:12.336Z,11.00
2023-01-20T17:32:39.089Z,11.30
2023-01-20T17:35:06.842Z,11.20
2023-01-20T17:37:33.982Z,9.00
2023-01-20T17:40:01.122Z,10.00
2023-01-20T17:42:29.591Z,10.40
2023-01-20T17:45:01.603Z,9.70
2023-01-20T17:47:31.358Z,8.30
2023-01-20T17:49:58.898Z,9.00
2023-01-20T17:52:26.043Z,10.80
2023-01-20T17:54:53.668Z,13.00
2023-01-20T17:57:20.995Z,11.10
2023-01-20T17:59:48.080Z,10.30
2023-01-20T18:02:18.757Z,8.90
2023-01-20T18:04:46.750Z,12.80
2023-01-20T18:07:13.654Z,12.00
2023-01-20T18:09:42.940Z,12.40
2023-01-20T18:12:10.054Z,8.40
2023-01-20T18:14:37.237Z,10.20
2023-01-20T18:17:04.937Z,10.60
2023-01-20T18:19:32.158Z,11.40
2023-01-20T18:22:02.249Z,18.40
2023-01-20T18:24:31.010Z,24.00
2023-01-20T18:26:59.663Z,19.10
2023-01-20T18:29:30.837Z,22.10
2023-01-20T18:31:58.490Z,32.30
2023-01-20T18:34:25.555Z,26.60
2023-01-20T18:36:53.118Z,30.40
2023-01-20T18:39:21.794Z,32.80
2023-01-20T18:41:49.958Z,31.30
2023-01-20T18:44:18.805Z,31.50
2023-01-20T18:46:46.015Z,28.70
2023-01-20T18:49:14.312Z,28.40
2023-01-20T18:51:42.632Z,28.70
2023-01-20T18:54:25.243Z,27.10
2023-01-20T18:56:52.680Z,26.10
2023-01-20T18:59:19.895Z,28.30
2023-01-20T19:01:47.964Z,27.00
2023-01-20T19:04:17.151Z,26.20
2023-01-20T19:06:46.507Z,27.60
2023-01-20T19:09:16.477Z,21.80
2023-01-20T19:11:43.954Z,23.50
2023-01-20T19:14:13.013Z,29.60
2023-01-20T19:16:45.679Z,18.50
2023-01-20T19:19:14.196Z,18.10
2023-01-20T19:21:41.959Z,15.20
2023-01-20T19:24:13.076Z,16.30
2023-01-20T19:26:40.791Z,18.80
2023-01-20T19:29:11.302Z,16.80
2023-01-20T19:31:39.890Z,15.80
2023-01-20T19:34:07.720Z,13.90
2023-01-20T19:36:35.927Z,14.10
2023-01-20T19:39:04.252Z,14.90
2023-01-20T19:41:36.389Z,15.00
2023-01-20T19:44:07.389Z,11.40
2023-01-20T19:46:36.053Z,16.30
2023-01-20T19:49:04.220Z,11.10
2023-01-20T19:51:32.296Z,12.30
2023-01-20T19:54:01.707Z,15.20
2023-01-20T19:56:34.148Z,14.70
2023-01-20T19:59:02.446Z,12.40
2023-01-20T20:01:36.964Z,12.40
2023-01-20T20:04:06.345Z,14.20
2023-01-20T20:06:39.097Z,15.00
2023-01-20T20:09:14.221Z,15.20
2023-01-20T20:11:43.531Z,12.90
2023-01-20T20:14:15.482Z,12.60
2023-01-20T20:16:42.831Z,11.60
2023-01-20T20:19:13.819Z,11.50
2023-01-20T20:21:41.744Z,12.90
2023-01-20T20:24:11.823Z,11.70
2023-01-20T20:26:39.396Z,12.30
2023-01-20T20:29:08.218Z,12.60
2023-01-20T20:31:38.435Z,12.90
2023-01-20T20:34:07.653Z,15.70
2023-01-20T20:36:36.282Z,16.30
2023-01-20T20:39:06.243Z,19.00
2023-01-20T20:41:36.103Z,15.90
2023-01-20T20:44:04.194Z,13.70
2023-01-20T20:46:32.348Z,13.40
2023-01-20T20:49:01.631Z,30.00
2023-01-20T20:51:32.385Z,19.50
2023-01-20T20:54:02.868Z,23.20
2023-01-20T20:56:34.464Z,31.40
2023-01-20T20:59:03.633Z,24.70
2023-01-20T21:01:33.813Z,20.90
2023-01-20T21:04:02.669Z,23.40
2023-01-20T21:06:30.441Z,20.90
2023-01-20T21:08:58.986Z,16.20
2023-01-20T21:11:26.391Z,14.40
2023-01-20T21:13:53.975Z,14.10
2023-01-20T21:16:23.769Z,17.20
2023-01-20T21:18:52.677Z,18.00
2023-01-20T21:21:22.067Z,16.80
2023-01-20T21:23:51.487Z,15.60
2023-01-20T21:26:19.853Z,18.50
2023-01-20T21:28:49.965Z,19.50
2023-01-20T21:31:19.360Z,17.00
2023-01-20T21:33:47.386Z,15.80
2023-01-20T21:36:14.805Z,16.50
2023-01-20T21:38:48.396Z,18.10
2023-01-20T21:41:15.997Z,20.10
2023-01-20T21:44:03.009Z,21.80
2023-01-20T21:46:33.172Z,19.80
2023-01-20T21:49:18.668Z,20.10
2023-01-20T21:52:04.162Z,25.30
2023-01-20T21:54:32.140Z,30.50
2023-01-20T21:56:59.659Z,32.10
2023-01-20T21:59:26.867Z,34.20
2023-01-20T22:01:54.044Z,31.90
2023-01-20T22:04:21.140Z,26.80
2023-01-20T22:06:47.980Z,27.70
2023-01-20T22:09:14.869Z,25.40
2023-01-20T22:11:41.658Z,28.80
2023-01-20T22:14:09.172Z,24.10
2023-01-20T22:16:35.985Z,37.70
2023-01-20T22:19:02.769Z,37.50
2023-01-20T22:21:29.897Z,38.60
2023-01-20T22:23:56.726Z,27.70
2023-01-20T22:26:23.725Z,25.60
2023-01-20T22:28:50.539Z,34.80
2023-01-20T22:31:20.097Z,29.70
2023-01-20T22:33:51.052Z,29.90
2023-01-20T22:36:17.830Z,29.50
2023-01-20T22:38:46.524Z,21.90
2023-01-20T22:41:13.424Z,24.20
2023-01-20T22:43:44.157Z,19.90
2023-01-20T22:46:13.522Z,31.50
2023-01-20T22:48:40.398Z,27.00
2023-01-20T22:51:11.824Z,33.80
2023-01-20T22:53:39.549Z,36.40
2023-01-20T22:56:08.064Z,49.40
2023-01-20T22:58:34.865Z,62.00
2023-01-20T23:01:01.982Z,61.20
2023-01-20T23:03:28.811Z,46.60
2023-01-20T23:05:57.059Z,58.00
2023-01-20T23:08:27.884Z,58.30
2023-01-20T23:10:56.129Z,50.20
2023-01-20T23:13:23.384Z,55.70
2023-01-20T23:15:50.703Z,48.50
2023-01-20T23:18:17.821Z,52.60
2023-01-20T23:20:47.631Z,45.20
2023-01-20T23:23:14.430Z,41.90
2023-01-20T23:25:41.165Z,46.10
2023-01-20T23:28:08.021Z,44.20
2023-01-20T23:30:34.867Z,39.50
2023-01-20T23:33:01.684Z,39.20
2023-01-20T23:35:28.435Z,41.90
2023-01-20T23:37:55.200Z,27.60
2023-01-20T23:40:21.996Z,37.00
2023-01-20T23:42:48.768Z,34.70
2023-01-20T23:45:15.570Z,31.70
2023-01-20T23:47:42.299Z,32.20
2023-01-20T23:50:09.705Z,35.80
2023-01-20T23:52:36.506Z,30.60
2023-01-20T23:55:03.280Z,25.90
2023-01-20T23:57:30.006Z,32.40
2023-01-20T23:59:56.880Z,27.10
